Time;durP1;ratioP1;P1;durP2;ratioP2;P2;SDS_P1;SDS_P2;PMS_P1;PMS_P2;Temp;Humidity;BMP_temperature;BMP_pressure;BME280_temperature;BME280_humidity;BME280_pressure;Samples;Min_cycle;Max_cycle;Signal;HPM_P1;HPM_P2
2021/06/01 00:01:37;;;;;;;8.30;5.95;;;11.70;78.50;;;;;;5089746;28;20097;-77
2021/06/01 00:04:03;;;;;;;10.68;5.97;;;11.60;78.50;;;;;;5087744;28;20056;-77
2021/06/01 00:06:29;;;;;;;9.48;6.07;;;11.60;78.60;;;;;;5078772;28;20028;-78
2021/06/01 00:08:55;;;;;;;10.32;6.45;;;11.60;78.80;;;;;;5084221;28;20025;-77
2021/06/01 00:11:21;;;;;;;7.90;5.68;;;11.60;79.10;;;;;;5075758;28;20058;-78
2021/06/01 00:13:46;;;;;;;8.52;6.28;;;11.50;79.10;;;;;;5084369;28;20091;-77
2021/06/01 00:16:13;;;;;;;9.27;5.57;;;11.60;79.30;;;;;;5085411;28;20035;-77
2021/06/01 00:18:41;;;;;;;9.68;6.43;;;11.60;79.60;;;;;;5081325;28;20470;-77
2021/06/01 00:21:07;;;;;;;7.70;5.90;;;11.60;79.80;;;;;;5077480;28;20501;-77
2021/06/01 00:23:36;;;;;;;8.60;6.10;;;11.60;79.90;;;;;;5097630;28;20115;-76
2021/06/01 00:26:06;;;;;;;9.45;6.20;;;11.70;80.00;;;;;;5085207;28;20077;-77
2021/06/01 00:28:33;;;;;;;7.85;6.00;;;11.70;80.00;;;;;;5077326;28;20028;-77
2021/06/01 00:30:59;;;;;;;8.23;6.38;;;11.70;79.90;;;;;;5073639;28;20043;-77
2021/06/01 00:33:25;;;;;;;9.82;6.50;;;11.70;80.00;;;;;;5074768;28;20148;-78
2021/06/01 00:35:51;;;;;;;8.73;6.53;;;11.70;80.10;;;;;;5074366;28;20032;-77
2021/06/01 00:38:16;;;;;;;7.90;5.90;;;11.70;80.00;;;;;;5072901;28;20027;-77
2021/06/01 00:40:42;;;;;;;9.10;6.53;;;11.70;79.90;;;;;;5073000;28;20066;-77
2021/06/01 00:43:08;;;;;;;9.25;6.60;;;11.80;79.90;;;;;;5077954;28;20039;-79
2021/06/01 00:45:34;;;;;;;9.63;6.72;;;11.80;79.80;;;;;;5088865;28;20027;-77
2021/06/01 00:47:59;;;;;;;9.07;6.43;;;11.80;79.90;;;;;;5090934;28;20020;-78
2021/06/01 00:50:27;;;;;;;9.88;6.43;;;11.80;79.90;;;;;;5091576;28;20023;-81
2021/06/01 00:52:53;;;;;;;8.13;6.00;;;11.80;79.80;;;;;;5090918;28;20497;-78
2021/06/01 00:55:20;;;;;;;9.32;6.43;;;11.90;79.70;;;;;;5107770;28;20039;-76
2021/06/01 00:57:46;;;;;;;11.65;6.65;;;11.90;79.70;;;;;;5088551;28;20450;-77
2021/06/01 01:01:13;;;;;;;8.50;6.43;;;11.90;79.70;;;;;;5090168;28;20085;-77
2021/06/01 01:03:04;;;;;;;11.77;6.93;;;11.90;79.70;;;;;;5092858;28;20035;-77
2021/06/01 01:05:35;;;;;;;9.88;6.85;;;11.90;79.70;;;;;;5110548;28;20476;-77
2021/06/01 01:08:21;;;;;;;8.75;6.82;;;12.00;80.00;;;;;;5098038;28;20024;-78
2021/06/01 01:10:49;;;;;;;9.30;6.40;;;11.90;79.80;;;;;;5100582;28;20036;-78
2021/06/01 01:13:18;;;;;;;9.35;6.47;;;11.90;79.80;;;;;;5109036;28;20042;-77
2021/06/01 01:15:48;;;;;;;7.43;5.95;;;11.90;79.70;;;;;;5107643;28;20027;-78
2021/06/01 01:18:21;;;;;;;10.32;6.65;;;11.90;79.60;;;;;;5109396;28;20488;-77
2021/06/01 01:20:50;;;;;;;9.05;6.60;;;11.90;79.80;;;;;;5109065;28;20059;-78
2021/06/01 01:23:18;;;;;;;10.38;6.78;;;11.90;79.70;;;;;;5084244;28;20047;-78
2021/06/01 01:26:15;;;;;;;12.52;6.50;;;11.90;79.80;;;;;;5109513;28;20106;-78
2021/06/01 01:29:02;;;;;;;7.75;6.00;;;11.80;79.90;;;;;;5084368;28;20050;-77
2021/06/01 01:31:50;;;;;;;12.73;6.35;;;11.80;80.10;;;;;;5109771;28;20038;-77
2021/06/01 01:34:18;;;;;;;10.98;6.85;;;11.80;79.90;;;;;;5107862;28;20039;-78
2021/06/01 01:36:46;;;;;;;8.68;6.35;;;11.90;80.10;;;;;;5113073;28;20058;-78
2021/06/01 01:39:14;;;;;;;10.18;6.38;;;11.90;80.10;;;;;;5114575;28;20058;-77
2021/06/01 01:41:40;;;;;;;10.20;6.75;;;12.00;80.30;;;;;;5111201;28;20477;-77
2021/06/01 01:44:11;;;;;;;10.88;6.43;;;12.00;80.30;;;;;;5113833;28;20059;-77
2021/06/01 01:49:17;;;;;;;8.95;6.22;;;12.00;80.10;;;;;;5104959;28;20024;-78
2021/06/01 01:51:56;;;;;;;11.85;6.47;;;12.00;79.90;;;;;;5102961;28;20020;-78
2021/06/01 01:54:24;;;;;;;8.98;6.18;;;12.00;80.10;;;;;;5108090;28;20374;-78
2021/06/01 01:56:56;;;;;;;8.43;6.15;;;12.00;80.00;;;;;;5086233;28;20024;-78
2021/06/01 01:59:25;;;;;;;7.80;6.25;;;12.00;80.00;;;;;;5110741;28;20047;-77
2021/06/01 02:01:53;;;;;;;8.98;5.93;;;11.90;80.10;;;;;;5101146;28;20024;-78
2021/06/01 02:04:23;;;;;;;7.35;5.80;;;11.90;80.30;;;;;;5106198;27;20088;-77
2021/06/01 02:06:49;;;;;;;11.70;7.70;;;11.90;80.50;;;;;;5082764;28;20028;-81
2021/06/01 02:09:15;;;;;;;9.23;6.55;;;11.90;80.30;;;;;;5093838;28;20433;-79
2021/06/01 02:11:41;;;;;;;8.68;6.25;;;11.90;80.50;;;;;;5103148;28;20028;-78
2021/06/01 02:14:08;;;;;;;9.98;6.38;;;11.90;80.50;;;;;;5108432;28;20051;-77
2021/06/01 02:16:36;;;;;;;8.60;6.05;;;11.90;80.60;;;;;;5111677;28;20024;-77
2021/06/01 02:19:04;;;;;;;9.15;6.03;;;11.90;80.80;;;;;;5106073;28;20025;-78
2021/06/01 02:21:46;;;;;;;8.85;6.07;;;11.80;80.80;;;;;;5110491;28;20034;-78
2021/06/01 02:24:31;;;;;;;8.60;6.22;;;11.80;80.90;;;;;;5099807;28;20029;-77
2021/06/01 02:27:19;;;;;;;8.30;5.93;;;11.80;80.90;;;;;;5104357;28;20104;-77
2021/06/01 02:30:02;;;;;;;9.60;6.40;;;11.80;81.00;;;;;;5103814;28;20028;-77
2021/06/01 02:32:36;;;;;;;12.18;6.90;;;11.80;81.20;;;;;;5084095;28;20028;-77
2021/06/01 02:35:17;;;;;;;9.27;6.20;;;11.80;81.40;;;;;;5103768;28;20136;-78
2021/06/01 02:37:47;;;;;;;11.23;6.55;;;11.90;81.70;;;;;;5093271;28;20028;-77
2021/06/01 02:40:15;;;;;;;7.75;5.80;;;11.80;81.70;;;;;;5105790;28;20424;-77
2021/06/01 02:42:42;;;;;;;8.60;6.35;;;11.90;81.90;;;;;;5089712;28;20032;-77
2021/06/01 02:45:11;;;;;;;8.85;6.40;;;11.90;81.70;;;;;;5099090;28;20024;-79
2021/06/01 02:47:38;;;;;;;11.10;6.30;;;11.90;81.80;;;;;;5099333;28;20016;-77
2021/06/01 02:50:08;;;;;;;8.40;6.20;;;11.90;81.60;;;;;;5093181;28;20039;-77
2021/06/01 02:52:36;;;;;;;8.20;6.25;;;11.90;81.80;;;;;;5084164;28;20138;-78
2021/06/01 02:55:05;;;;;;;8.65;5.88;;;11.90;81.50;;;;;;5092293;28;20027;-77
2021/06/01 02:57:31;;;;;;;9.65;6.38;;;11.90;81.50;;;;;;5088518;28;20042;-77
2021/06/01 02:59:57;;;;;;;10.32;6.25;;;12.00;81.60;;;;;;5089508;28;20033;-78
2021/06/01 03:02:26;;;;;;;9.07;6.22;;;12.00;81.50;;;;;;5094423;28;20027;-77
2021/06/01 03:04:52;;;;;;;8.43;5.72;;;12.00;81.70;;;;;;5077306;28;20031;-78
2021/06/01 03:07:18;;;;;;;9.65;6.40;;;12.00;81.30;;;;;;5080886;28;20054;-78
2021/06/01 03:09:44;;;;;;;8.63;6.47;;;12.00;81.20;;;;;;5095023;28;20015;-78
2021/06/01 03:12:22;;;;;;;9.70;6.13;;;12.00;81.20;;;;;;5112819;28;20038;-78
2021/06/01 03:14:47;;;;;;;8.43;6.15;;;12.10;81.30;;;;;;5111723;28;20029;-77
2021/06/01 03:17:13;;;;;;;7.78;6.05;;;12.10;81.50;;;;;;5095125;28;20032;-78
2021/06/01 03:19:39;;;;;;;7.78;5.97;;;12.10;81.50;;;;;;5109639;28;20108;-77
2021/06/01 03:22:05;;;;;;;8.90;5.68;;;12.10;81.20;;;;;;5106485;28;20071;-77
2021/06/01 03:24:32;;;;;;;8.13;5.57;;;12.10;81.10;;;;;;5104602;28;20030;-77
2021/06/01 03:26:57;;;;;;;8.65;6.25;;;12.20;81.20;;;;;;5107083;28;20034;-78
2021/06/01 03:29:23;;;;;;;8.18;5.63;;;12.20;81.20;;;;;;5102027;28;20028;-78
2021/06/01 03:31:49;;;;;;;7.93;5.55;;;12.30;80.80;;;;;;5104121;28;20466;-78
2021/06/01 03:34:15;;;;;;;9.25;5.20;;;12.20;80.40;;;;;;5096205;28;20039;-78
2021/06/01 03:36:41;;;;;;;8.90;5.65;;;12.20;80.40;;;;;;5093654;28;20027;-77
2021/06/01 03:39:08;;;;;;;10.68;5.78;;;12.20;80.50;;;;;;5088174;28;20028;-77
2021/06/01 03:41:35;;;;;;;8.85;5.40;;;12.30;80.70;;;;;;5086501;28;20017;-77
2021/06/01 03:44:01;;;;;;;8.35;5.18;;;12.30;80.40;;;;;;5073803;28;20031;-77
2021/06/01 03:46:27;;;;;;;8.65;5.05;;;12.40;80.40;;;;;;5089803;28;20473;-79
2021/06/01 03:48:52;;;;;;;8.90;5.43;;;12.40;80.00;;;;;;5090282;28;20036;-79
2021/06/01 03:51:18;;;;;;;7.90;5.78;;;12.40;79.80;;;;;;5078919;28;20099;-78
2021/06/01 03:53:44;;;;;;;8.23;4.53;;;12.40;79.60;;;;;;5096816;28;20081;-80
2021/06/01 03:56:10;;;;;;;9.63;4.72;;;12.40;79.60;;;;;;5096545;28;20032;-81
2021/06/01 03:58:35;;;;;;;7.40;5.45;;;12.40;79.10;;;;;;5084200;28;20077;-80
2021/06/01 04:01:02;;;;;;;7.97;4.85;;;12.40;79.00;;;;;;5084912;28;20032;-80
2021/06/01 04:03:27;;;;;;;7.38;4.32;;;12.30;79.10;;;;;;5082645;28;20055;-81
2021/06/01 04:05:53;;;;;;;6.20;4.53;;;12.40;79.10;;;;;;5076933;28;20065;-80
2021/06/01 04:08:18;;;;;;;8.00;5.20;;;12.40;79.30;;;;;;5079532;28;20035;-80
2021/06/01 04:10:44;;;;;;;8.55;5.45;;;12.40;79.20;;;;;;5087932;28;20036;-80
2021/06/01 04:13:10;;;;;;;8.20;5.68;;;12.50;79.20;;;;;;5076918;28;20075;-81
2021/06/01 04:15:35;;;;;;;15.30;5.90;;;12.50;79.30;;;;;;5083376;28;20035;-80
2021/06/01 04:18:01;;;;;;;12.25;5.18;;;12.50;79.60;;;;;;5078729;28;20016;-81
2021/06/01 04:20:27;;;;;;;7.97;5.43;;;12.60;79.40;;;;;;5090019;28;20040;-81
2021/06/01 04:22:53;;;;;;;11.75;6.75;;;12.60;79.20;;;;;;5093798;28;20073;-76
2021/06/01 04:25:19;;;;;;;9.02;6.25;;;12.70;79.20;;;;;;5101708;28;20032;-73
2021/06/01 04:27:45;;;;;;;12.77;6.00;;;12.70;78.90;;;;;;5095384;28;20073;-73
2021/06/01 04:30:12;;;;;;;7.43;5.53;;;12.70;78.60;;;;;;5097299;28;20023;-73
2021/06/01 04:32:38;;;;;;;10.25;5.85;;;12.80;78.60;;;;;;5086373;28;20091;-78
2021/06/01 04:35:04;;;;;;;13.20;6.50;;;12.70;78.30;;;;;;5098086;28;20575;-69
2021/06/01 04:37:29;;;;;;;8.25;5.78;;;12.80;78.50;;;;;;5087844;28;20048;-76
2021/06/01 04:39:56;;;;;;;8.98;6.18;;;12.80;78.00;;;;;;5095048;28;20120;-72
2021/06/01 04:42:22;;;;;;;10.18;6.22;;;12.80;78.30;;;;;;5095943;28;20038;-73
2021/06/01 04:44:48;;;;;;;8.15;5.18;;;12.80;78.10;;;;;;5106881;28;20036;-73
2021/06/01 04:47:14;;;;;;;15.65;5.68;;;12.90;78.00;;;;;;5108881;28;20055;-72
2021/06/01 04:49:40;;;;;;;7.78;5.88;;;13.00;77.60;;;;;;5108054;28;20031;-75
2021/06/01 04:52:06;;;;;;;8.07;5.47;;;13.00;77.40;;;;;;5107256;28;20301;-72
2021/06/01 04:54:31;;;;;;;9.27;5.95;;;13.00;77.40;;;;;;5106419;28;20395;-75
2021/06/01 04:56:57;;;;;;;8.32;5.25;;;13.00;76.70;;;;;;5095583;28;20032;-73
2021/06/01 04:59:23;;;;;;;11.00;5.28;;;13.00;76.60;;;;;;5090683;28;20085;-74
2021/06/01 05:01:48;;;;;;;12.48;5.43;;;13.00;76.50;;;;;;5091414;28;20028;-73
2021/06/01 05:04:14;;;;;;;8.15;5.15;;;13.00;76.30;;;;;;5088358;28;20031;-72
2021/06/01 05:06:40;;;;;;;8.57;4.97;;;13.20;76.50;;;;;;5096624;28;20089;-73
2021/06/01 05:09:06;;;;;;;7.28;4.82;;;13.20;75.50;;;;;;5088414;28;20062;-71
2021/06/01 05:11:32;;;;;;;6.90;4.82;;;13.20;75.40;;;;;;5088732;28;20025;-72
2021/06/01 05:13:58;;;;;;;8.27;4.25;;;13.20;75.70;;;;;;5096724;28;20165;-72
2021/06/01 05:16:24;;;;;;;8.40;4.88;;;13.30;75.40;;;;;;5091921;28;20359;-72
2021/06/01 05:18:49;;;;;;;7.90;5.25;;;13.40;75.00;;;;;;5090529;28;20077;-76
2021/06/01 05:21:16;;;;;;;10.50;5.40;;;13.40;74.60;;;;;;5045441;28;1329319;-72
2021/06/01 05:23:41;;;;;;;6.47;4.18;;;13.40;74.60;;;;;;5091839;28;20103;-69
2021/06/01 05:26:08;;;;;;;6.07;4.60;;;13.40;74.30;;;;;;5094007;28;20102;-74
2021/06/01 05:28:36;;;;;;;7.25;3.80;;;13.50;74.80;;;;;;5088552;28;20021;-73
2021/06/01 05:33:54;;;;;;;;;;;14.10;74.40;;;;;;5053998;28;20063;-80
2021/06/01 05:36:20;;;;;;;7.53;2.80;;;14.60;74.60;;;;;;5102448;28;19908;-73
2021/06/01 05:38:46;;;;;;;5.97;2.95;;;15.20;73.50;;;;;;5096514;28;20028;-80
2021/06/01 05:41:12;;;;;;;7.78;2.95;;;15.80;71.80;;;;;;5092326;28;20020;-75
2021/06/01 05:43:38;;;;;;;4.78;2.60;;;16.30;70.10;;;;;;5092523;28;20077;-72
2021/06/01 05:46:05;;;;;;;8.25;2.70;;;16.70;68.10;;;;;;5086124;28;20387;-74
2021/06/01 05:48:31;;;;;;;5.30;2.38;;;17.00;66.40;;;;;;5077374;28;20028;-72
2021/06/01 05:50:58;;;;;;;4.13;2.40;;;17.30;65.40;;;;;;5072441;28;20077;-73
2021/06/01 05:53:24;;;;;;;5.75;2.40;;;17.60;64.20;;;;;;5093657;28;20055;-73
2021/06/01 05:55:51;;;;;;;4.22;2.50;;;17.70;62.40;;;;;;5092665;28;20024;-73
2021/06/01 05:58:17;;;;;;;5.45;2.40;;;17.60;62.50;;;;;;5096967;28;20599;-73
2021/06/01 06:00:43;;;;;;;8.82;3.13;;;17.60;61.80;;;;;;5102757;28;20051;-72
2021/06/01 06:03:09;;;;;;;6.68;3.00;;;17.70;61.60;;;;;;5101269;28;20441;-74
2021/06/01 06:05:35;;;;;;;5.30;2.22;;;17.80;60.90;;;;;;5103676;28;20024;-73
2021/06/01 06:08:12;;;;;;;4.63;2.00;;;17.70;60.40;;;;;;5095250;28;20124;-74
2021/06/01 06:10:39;;;;;;;4.32;2.15;;;17.80;59.90;;;;;;5118836;28;20054;-73
2021/06/01 06:13:05;;;;;;;2.88;1.98;;;17.70;59.20;;;;;;5110129;28;20032;-73
2021/06/01 06:15:31;;;;;;;3.70;2.15;;;17.40;58.70;;;;;;5113882;28;20028;-72
2021/06/01 06:18:13;;;;;;;4.90;2.45;;;17.10;59.10;;;;;;5115419;28;20374;-73
2021/06/01 06:20:39;;;;;;;5.90;3.05;;;16.80;60.20;;;;;;5114723;28;20043;-73
2021/06/01 06:23:04;;;;;;;4.90;3.30;;;16.60;60.40;;;;;;5115717;28;20418;-73
2021/06/01 06:25:30;;;;;;;3.97;2.63;;;16.40;60.30;;;;;;5115835;28;20374;-74
2021/06/01 06:27:57;;;;;;;7.35;3.00;;;16.10;61.00;;;;;;5113557;28;20032;-72
2021/06/01 06:30:24;;;;;;;8.25;2.92;;;15.90;61.50;;;;;;5115825;28;20024;-72
2021/06/01 06:32:51;;;;;;;6.75;3.40;;;15.60;62.20;;;;;;5113287;28;20031;-72
2021/06/01 06:35:17;;;;;;;7.10;2.88;;;15.30;62.80;;;;;;5114082;28;20088;-72
2021/06/01 06:37:43;;;;;;;5.53;3.00;;;15.00;63.40;;;;;;5113882;28;20027;-72
2021/06/01 06:40:10;;;;;;;6.28;3.13;;;14.90;63.80;;;;;;5114005;28;20031;-72
2021/06/01 06:42:37;;;;;;;5.97;2.70;;;14.70;64.20;;;;;;5114915;28;20035;-72
2021/06/01 06:45:06;;;;;;;8.85;2.83;;;14.60;64.80;;;;;;5113555;28;20143;-72
2021/06/01 06:50:15;;;;;;;7.03;2.47;;;14.60;65.90;;;;;;5114807;28;20023;-73
2021/06/01 06:52:42;;;;;;;6.35;2.70;;;14.60;66.00;;;;;;5113223;28;20023;-74
2021/06/01 06:55:09;;;;;;;6.18;2.30;;;14.70;65.60;;;;;;5114367;28;20031;-73
2021/06/01 06:57:35;;;;;;;4.00;2.60;;;14.70;65.30;;;;;;5113916;28;20067;-73
2021/06/01 07:00:05;;;;;;;5.45;2.55;;;14.60;65.50;;;;;;5114806;28;20107;-73
2021/06/01 07:02:30;;;;;;;5.70;2.65;;;14.50;65.50;;;;;;5113067;28;20027;-73
2021/06/01 07:04:56;;;;;;;9.73;4.07;;;14.50;65.60;;;;;;5114506;28;20036;-73
2021/06/01 07:07:22;;;;;;;5.15;2.35;;;14.50;66.00;;;;;;5113305;28;20020;-73
2021/06/01 07:09:47;;;;;;;7.35;2.83;;;14.40;66.20;;;;;;5114663;28;20027;-73
2021/06/01 07:12:13;;;;;;;4.47;2.55;;;14.40;66.50;;;;;;5114864;28;20019;-73
2021/06/01 07:15:11;;;;;;;5.85;2.40;;;14.50;66.80;;;;;;5114465;28;20487;-73
2021/06/01 07:17:39;;;;;;;4.97;3.05;;;14.50;66.60;;;;;;5097859;28;20396;-75
2021/06/01 07:20:07;;;;;;;5.38;2.70;;;14.60;66.20;;;;;;5113039;28;20046;-74
2021/06/01 07:22:33;;;;;;;5.95;2.50;;;14.50;66.50;;;;;;5111607;28;20056;-73
2021/06/01 07:24:59;;;;;;;6.07;2.70;;;14.50;66.40;;;;;;5113949;28;20462;-73
2021/06/01 07:27:25;;;;;;;5.90;2.58;;;14.50;66.20;;;;;;5113534;28;20081;-74
2021/06/01 07:29:51;;;;;;;6.72;2.80;;;14.40;66.20;;;;;;5114748;28;20395;-73
2021/06/01 07:32:18;;;;;;;4.40;2.58;;;14.30;66.20;;;;;;5114098;28;20020;-73
2021/06/01 07:34:43;;;;;;;4.65;2.40;;;14.20;66.20;;;;;;5112872;28;20079;-72
2021/06/01 07:37:09;;;;;;;10.32;3.03;;;14.20;66.20;;;;;;5114413;28;20110;-73
2021/06/01 07:39:35;;;;;;;6.15;2.90;;;14.30;66.10;;;;;;5113930;28;20035;-73
2021/06/01 07:42:00;;;;;;;5.78;3.08;;;14.20;65.90;;;;;;5112872;28;20223;-73
2021/06/01 07:44:29;;;;;;;5.28;2.70;;;14.10;66.10;;;;;;5112127;28;20050;-75
2021/06/01 07:46:55;;;;;;;6.72;2.70;;;14.10;66.60;;;;;;5113673;28;20382;-74
2021/06/01 07:49:20;;;;;;;4.43;2.95;;;14.10;66.50;;;;;;5114560;28;20032;-73
2021/06/01 07:51:46;;;;;;;7.90;3.60;;;14.10;66.70;;;;;;5112338;28;20385;-75
2021/06/01 07:54:12;;;;;;;8.10;3.30;;;14.20;67.10;;;;;;5112428;28;20035;-73
2021/06/01 07:56:38;;;;;;;9.07;2.88;;;14.40;66.80;;;;;;5112940;28;20035;-73
2021/06/01 07:59:03;;;;;;;10.65;3.60;;;14.50;66.30;;;;;;5113775;28;20417;-73
2021/06/01 08:01:29;;;;;;;7.60;3.55;;;14.50;65.90;;;;;;5113094;28;20091;-73
2021/06/01 08:03:56;;;;;;;6.22;3.08;;;14.60;65.90;;;;;;5112949;28;20032;-73
2021/06/01 08:06:24;;;;;;;7.78;3.00;;;14.60;65.90;;;;;;5112666;28;20028;-73
2021/06/01 08:08:50;;;;;;;7.47;2.90;;;14.70;66.00;;;;;;5112987;28;20438;-73
2021/06/01 08:11:16;;;;;;;7.05;3.22;;;14.80;65.40;;;;;;5112289;28;20027;-73
2021/06/01 08:13:42;;;;;;;7.20;3.17;;;14.80;65.20;;;;;;5113612;28;20031;-73
2021/06/01 08:16:07;;;;;;;7.10;2.42;;;14.80;65.00;;;;;;5112816;28;20088;-73
2021/06/01 08:18:38;;;;;;;4.50;2.95;;;14.80;64.70;;;;;;5113086;28;20436;-73
2021/06/01 08:23:33;;;;;;;4.78;2.63;;;14.80;64.70;;;;;;5113614;28;20031;-72
2021/06/01 08:25:58;;;;;;;9.18;2.80;;;14.70;64.70;;;;;;5112761;28;20918;-73
2021/06/01 08:28:24;;;;;;;6.32;2.80;;;14.80;64.50;;;;;;5111697;28;20490;-73
2021/06/01 08:30:51;;;;;;;4.60;2.33;;;14.70;64.30;;;;;;5111173;28;20134;-73
2021/06/01 08:33:18;;;;;;;5.88;2.53;;;14.70;64.50;;;;;;5112755;28;20020;-73
2021/06/01 08:35:44;;;;;;;5.68;2.60;;;14.70;64.40;;;;;;5113580;28;20382;-73
2021/06/01 08:38:09;;;;;;;8.20;2.70;;;14.60;64.10;;;;;;5112615;28;20019;-72
2021/06/01 08:40:35;;;;;;;6.82;2.70;;;14.60;64.20;;;;;;5112426;28;20435;-73
2021/06/01 08:43:01;;;;;;;10.68;2.88;;;14.60;64.70;;;;;;5112139;28;20064;-74
2021/06/01 08:45:26;;;;;;;5.72;3.15;;;14.70;64.50;;;;;;5112759;28;20020;-73
2021/06/01 08:47:56;;;;;;;7.03;2.72;;;14.70;64.50;;;;;;5098575;28;20024;-73
2021/06/01 08:50:22;;;;;;;5.68;2.80;;;14.70;64.30;;;;;;5113266;28;20024;-73
2021/06/01 08:52:48;;;;;;;6.32;2.80;;;14.60;64.30;;;;;;5111741;28;20494;-73
2021/06/01 08:55:13;;;;;;;5.20;2.67;;;14.60;64.40;;;;;;5112423;28;20107;-73
2021/06/01 08:57:41;;;;;;;8.52;2.88;;;14.60;64.60;;;;;;5113004;28;20024;-73
2021/06/01 09:00:09;;;;;;;7.60;3.45;;;14.60;64.70;;;;;;5111328;28;20038;-73
2021/06/01 09:02:35;;;;;;;5.15;2.63;;;14.60;65.30;;;;;;5110818;28;20035;-73
2021/06/01 09:05:05;;;;;;;7.43;3.13;;;14.60;64.80;;;;;;5112507;28;20028;-72
2021/06/01 09:21:48;;;;;;;5.18;2.90;;;14.80;64.40;;;;;;5087521;28;20051;-73
2021/06/01 09:24:15;;;;;;;4.45;2.72;;;14.80;64.10;;;;;;5112317;28;20086;-73
2021/06/01 09:29:18;;;;;;;7.72;3.30;;;14.90;63.50;;;;;;5112501;28;20114;-73
2021/06/01 09:31:44;;;;;;;10.10;3.30;;;14.80;63.00;;;;;;5111056;28;20051;-73
2021/06/01 09:34:10;;;;;;;9.05;3.40;;;14.80;63.40;;;;;;5112294;28;20059;-74
2021/06/01 09:36:36;;;;;;;7.70;3.50;;;14.80;64.40;;;;;;5111814;28;20024;-73
2021/06/01 09:39:04;;;;;;;5.18;3.05;;;14.80;63.40;;;;;;5111487;28;20077;-72
2021/06/01 09:41:31;;;;;;;5.95;3.55;;;14.80;63.10;;;;;;5112189;28;20385;-73
2021/06/01 09:44:05;;;;;;;6.88;3.72;;;14.90;63.00;;;;;;5112397;28;20036;-72
2021/06/01 09:46:35;;;;;;;9.75;3.58;;;14.90;63.50;;;;;;5111901;28;20016;-73
2021/06/01 09:49:13;;;;;;;6.75;3.00;;;15.00;63.90;;;;;;5111985;28;20065;-73
2021/06/01 09:51:58;;;;;;;8.35;3.20;;;15.10;63.50;;;;;;5114612;28;20016;-73
2021/06/01 09:54:50;;;;;;;6.57;3.55;;;15.10;63.50;;;;;;5116520;28;20019;-73
2021/06/01 09:57:21;;;;;;;10.48;3.63;;;15.20;63.80;;;;;;5082943;28;20040;-73
2021/06/01 10:00:13;;;;;;;8.20;3.28;;;15.20;63.60;;;;;;5110626;28;20527;-73
2021/06/01 10:02:40;;;;;;;15.70;4.43;;;15.30;63.50;;;;;;5115746;28;20035;-73
2021/06/01 10:05:17;;;;;;;8.90;3.42;;;15.40;63.80;;;;;;5114377;28;20039;-73
2021/06/01 10:07:43;;;;;;;8.30;3.60;;;15.50;62.80;;;;;;5114911;28;20047;-73
2021/06/01 10:10:35;;;;;;;10.05;3.80;;;15.50;62.30;;;;;;5114263;28;20609;-73
2021/06/01 10:13:06;;;;;;;7.00;3.50;;;15.50;62.40;;;;;;5112289;27;20393;-73
2021/06/01 10:15:33;;;;;;;4.88;3.10;;;15.60;61.90;;;;;;5115827;28;20415;-73
2021/06/01 10:18:00;;;;;;;6.68;3.28;;;15.60;61.40;;;;;;5115012;28;20114;-73
2021/06/01 10:20:27;;;;;;;6.35;3.00;;;15.60;61.10;;;;;;5115596;28;20059;-74
2021/06/01 10:22:55;;;;;;;10.48;4.10;;;15.70;61.10;;;;;;5114004;28;20027;-73
2021/06/01 10:25:21;;;;;;;6.32;2.88;;;15.80;61.20;;;;;;5115450;28;20485;-73
2021/06/01 10:27:49;;;;;;;5.53;3.25;;;15.80;60.70;;;;;;5115196;28;20081;-73
2021/06/01 10:30:17;;;;;;;5.68;2.85;;;15.90;60.00;;;;;;5115362;28;20031;-73
2021/06/01 10:32:57;;;;;;;6.72;3.05;;;16.10;60.30;;;;;;5114251;28;20074;-73
2021/06/01 10:35:24;;;;;;;12.35;4.20;;;16.30;59.90;;;;;;5114142;28;20469;-73
2021/06/01 10:44:16;;;;;;;9.45;3.40;;;17.30;58.20;;;;;;5115172;28;20549;-73
2021/06/01 10:52:11;;;;;;;7.43;3.10;;;18.00;56.40;;;;;;5115363;28;20028;-73
2021/06/01 10:54:58;;;;;;;12.63;3.90;;;18.00;56.00;;;;;;5114254;28;20111;-73
2021/06/01 10:57:44;;;;;;;10.07;3.63;;;18.10;55.80;;;;;;5113998;28;20419;-73
2021/06/01 11:03:09;;;;;;;8.15;4.22;;;18.10;55.40;;;;;;5114694;28;20034;-73
2021/06/01 11:05:59;;;;;;;18.33;5.13;;;18.00;55.60;;;;;;5114635;28;20024;-73
2021/06/01 11:08:38;;;;;;;11.07;3.88;;;17.80;55.60;;;;;;5113149;28;20031;-75
2021/06/01 11:11:22;;;;;;;10.63;3.35;;;17.80;55.60;;;;;;5113353;28;20385;-74
2021/06/01 11:13:49;;;;;;;8.50;3.42;;;17.70;55.80;;;;;;5113572;28;20028;-74
2021/06/01 11:16:15;;;;;;;13.52;4.00;;;17.70;55.60;;;;;;5114460;28;20027;-73
2021/06/01 11:18:53;;;;;;;7.22;3.50;;;17.80;55.80;;;;;;5114097;28;20034;-73
2021/06/01 11:33:37;;;;;;;6.85;3.08;;;17.60;55.40;;;;;;5096501;28;20427;-74
2021/06/01 11:35:32;;;;;;;6.03;3.17;;;17.50;55.60;;;;;;5100792;28;20554;-73
2021/06/01 11:38:16;;;;;;;7.95;3.80;;;17.50;55.70;;;;;;5112099;28;20020;-73
2021/06/01 11:43:18;;;;;;;7.80;3.40;;;17.40;55.70;;;;;;5113584;28;20046;-73
2021/06/01 11:45:57;;;;;;;5.68;3.08;;;17.30;55.60;;;;;;5114415;28;20027;-73
2021/06/01 11:53:56;;;;;;;10.65;3.80;;;17.10;56.10;;;;;;5086344;28;20031;-73
2021/06/01 12:13:07;;;;;;;6.73;2.93;;;16.70;57.20;;;;;;5085055;28;20030;-73
2021/06/01 12:18:39;;;;;;;7.97;2.85;;;16.80;57.10;;;;;;5112852;28;20433;-73
2021/06/01 12:21:20;;;;;;;9.35;3.55;;;16.80;57.10;;;;;;5112735;28;20114;-73
2021/06/01 12:24:09;;;;;;;5.68;3.15;;;17.00;57.00;;;;;;5113622;28;20028;-73
2021/06/01 12:32:17;;;;;;;6.93;3.35;;;17.20;56.10;;;;;;5113084;28;20034;-73
2021/06/01 12:43:05;;;;;;;8.60;3.67;;;17.20;56.10;;;;;;5112569;28;20168;-73
2021/06/01 13:21:02;;;;;;;7.10;3.22;;;17.20;56.00;;;;;;5009567;28;20048;-72
2021/06/01 13:40:47;;;;;;;9.45;4.72;;;16.60;57.60;;;;;;5088522;28;20020;-73
2021/06/01 13:46:27;;;;;;;8.55;5.43;;;16.80;57.10;;;;;;5116685;28;20077;-73
2021/06/01 13:49:07;;;;;;;7.88;4.60;;;16.90;57.00;;;;;;5095357;28;20024;-73
2021/06/01 13:56:59;;;;;;;7.00;3.78;;;16.80;56.80;;;;;;5116118;28;20404;-72
2021/06/01 13:59:37;;;;;;;9.05;3.75;;;16.80;57.00;;;;;;5114712;28;20031;-72
2021/06/01 14:21:18;;;;;;;9.48;4.10;;;16.20;57.60;;;;;;5114974;28;20047;-72
2021/06/01 15:10:09;;;;;;;11.27;4.22;;;15.60;58.40;;;;;;5114722;28;19946;-72
2021/06/01 15:29:32;;;;;;;8.73;3.40;;;15.40;58.90;;;;;;5114262;28;20034;-73
2021/06/01 16:32:25;;;;;;;22.00;12.15;;;14.80;63.00;;;;;;5113584;28;20385;-73
2021/06/01 16:44:02;;;;;;;14.27;7.95;;;14.40;66.00;;;;;;5113119;28;20038;-72
2021/06/01 17:06:12;;;;;;;10.45;7.45;;;13.90;68.10;;;;;;5112213;28;20039;-72
2021/06/01 17:11:16;;;;;;;11.32;6.13;;;13.90;69.20;;;;;;5086893;28;20034;-72
2021/06/01 17:13:57;;;;;;;14.00;7.70;;;13.80;68.70;;;;;;5111411;28;20034;-72
2021/06/01 17:35:09;;;;;;;8.38;4.68;;;13.70;69.30;;;;;;5112792;28;20091;-72
2021/06/01 17:37:35;;;;;;;9.68;5.50;;;13.70;69.00;;;;;;5112234;28;20028;-73
2021/06/01 17:40:02;;;;;;;11.07;6.15;;;13.70;69.00;;;;;;5111745;28;20436;-72
2021/06/01 17:42:29;;;;;;;8.20;4.03;;;13.70;69.40;;;;;;5111750;28;20032;-73
2021/06/01 17:45:00;;;;;;;10.57;4.68;;;13.80;69.10;;;;;;5110024;28;20028;-73
2021/06/01 17:47:27;;;;;;;7.90;4.40;;;13.80;68.70;;;;;;5112982;28;20032;-72
2021/06/01 17:49:55;;;;;;;8.50;4.10;;;13.80;68.60;;;;;;5110779;28;20034;-72
2021/06/01 17:52:29;;;;;;;5.13;3.70;;;13.70;68.40;;;;;;5112355;28;20105;-72
2021/06/01 17:54:57;;;;;;;7.35;4.30;;;13.80;68.20;;;;;;5112041;28;20035;-72
2021/06/01 17:57:25;;;;;;;6.88;4.32;;;13.80;68.10;;;;;;5112420;28;20358;-72
2021/06/01 17:59:51;;;;;;;7.10;3.92;;;13.80;68.00;;;;;;5112110;28;20031;-73
2021/06/01 18:02:18;;;;;;;5.78;3.90;;;13.80;68.20;;;;;;5112327;28;20023;-72
2021/06/01 18:04:46;;;;;;;8.90;3.97;;;13.80;67.80;;;;;;5110596;28;20027;-72
2021/06/01 18:07:27;;;;;;;5.78;3.10;;;13.80;67.70;;;;;;5083839;28;20015;-72
2021/06/01 19:21:26;;;;;;;4.03;2.40;;;14.00;66.50;;;;;;5114892;28;20039;-72
2021/06/01 19:42:34;;;;;;;6.15;3.10;;;13.80;67.90;;;;;;5114140;28;20081;-72
2021/06/01 19:50:19;;;;;;;6.60;3.80;;;13.70;68.90;;;;;;5086762;28;20079;-72
2021/06/01 19:52:47;;;;;;;7.35;3.50;;;13.70;69.30;;;;;;5112791;28;20544;-72
2021/06/01 19:55:15;;;;;;;6.72;4.10;;;13.60;69.60;;;;;;5112153;28;20020;-72
2021/06/01 19:57:42;;;;;;;7.47;3.85;;;13.60;70.10;;;;;;5114424;28;20367;-73
2021/06/01 20:00:10;;;;;;;8.25;3.92;;;13.50;70.50;;;;;;5113461;28;20100;-72
2021/06/01 20:02:37;;;;;;;7.38;3.78;;;13.50;71.30;;;;;;5113774;28;20084;-72
2021/06/01 20:05:07;;;;;;;6.65;3.50;;;13.40;71.70;;;;;;5111804;28;20035;-72
2021/06/01 20:07:33;;;;;;;7.78;3.72;;;13.40;72.50;;;;;;5112718;28;20016;-72
2021/06/01 20:09:59;;;;;;;8.68;4.05;;;13.30;73.10;;;;;;5113700;28;20030;-72
2021/06/01 20:12:25;;;;;;;7.22;3.78;;;13.20;73.70;;;;;;5111798;28;20481;-74
2021/06/01 20:14:51;;;;;;;10.15;3.97;;;13.10;74.20;;;;;;5113089;28;20385;-69
2021/06/01 20:17:34;;;;;;;5.68;3.75;;;13.00;74.80;;;;;;5112177;28;20461;-69
2021/06/01 20:20:16;;;;;;;5.97;3.95;;;13.00;75.60;;;;;;5113284;28;20082;-68